createdAt,value
2019-06-07T00:01:36.936Z,84.30
2019-06-07T00:04:00.805Z,84.30
2019-06-07T00:06:26.057Z,84.75
2019-06-07T00:08:52.449Z,83.64
2019-06-07T00:11:19.944Z,84.30
2019-06-07T00:13:41.525Z,83.98
2019-06-07T00:16:08.636Z,83.39
2019-06-07T00:18:33.481Z,84.61
2019-06-07T00:20:59.363Z,84.72
2019-06-07T00:23:25.050Z,84.98
2019-06-07T00:25:52.389Z,84.64
2019-06-07T00:28:18.779Z,84.11
2019-06-07T00:30:51.543Z,83.55
2019-06-07T00:33:11.022Z,83.52
2019-06-07T00:35:34.190Z,85.46
2019-06-07T00:37:57.788Z,85.38
2019-06-07T00:40:31.584Z,84.97
2019-06-07T00:42:47.942Z,84.96
2019-06-07T00:45:13.868Z,85.51
2019-06-07T00:47:37.164Z,84.34
2019-06-07T00:50:00.736Z,82.99
2019-06-07T00:53:11.496Z,83.77
2019-06-07T00:54:49.629Z,83.73
2019-06-07T00:57:16.641Z,83.83
2019-06-07T00:59:38.513Z,84.91
2019-06-07T01:02:02.186Z,83.22
2019-06-07T01:04:27.373Z,83.86
2019-06-07T01:06:52.128Z,83.84
2019-06-07T01:09:20.287Z,84.88
2019-06-07T01:11:45.403Z,84.84
2019-06-07T01:14:11.314Z,84.72
2019-06-07T01:16:55.614Z,84.34
2019-06-07T01:19:05.683Z,84.67
2019-06-07T01:21:31.771Z,84.66
2019-06-07T01:24:11.538Z,84.22
2019-06-07T01:26:26.945Z,83.38
2019-06-07T01:28:50.678Z,83.50
2019-06-07T01:31:14.304Z,83.50
2019-06-07T01:33:50.223Z,82.75
2019-06-07T01:36:03.208Z,83.45
2019-06-07T01:38:26.946Z,83.28
2019-06-07T01:40:50.544Z,85.04
2019-06-07T01:43:17.059Z,84.72
2019-06-07T01:45:41.946Z,84.33
2019-06-07T01:48:06.869Z,84.61
2019-06-07T01:50:31.832Z,85.15
2019-06-07T01:52:56.780Z,84.62
2019-06-07T01:55:23.684Z,85.86
2019-06-07T01:57:48.572Z,86.31
2019-06-07T02:00:17.371Z,86.14
2019-06-07T02:02:42.898Z,85.73
2019-06-07T02:05:07.051Z,87.42
2019-06-07T02:07:33.236Z,86.97
2019-06-07T02:09:55.988Z,87.08
2019-06-07T02:12:28.013Z,87.46
2019-06-07T02:14:46.683Z,86.79
2019-06-07T02:17:11.514Z,87.14
2019-06-07T02:19:37.272Z,87.10
2019-06-07T02:22:02.513Z,86.80
2019-06-07T02:24:29.588Z,87.00
2019-06-07T02:26:53.844Z,86.92
2019-06-07T02:29:28.176Z,86.73
2019-06-07T02:31:54.749Z,86.74
2019-06-07T02:34:19.228Z,87.43
2019-06-07T02:36:42.757Z,87.65
2019-06-07T02:39:07.841Z,87.73
2019-06-07T02:41:38.563Z,87.84
2019-06-07T02:43:57.686Z,88.07
2019-06-07T02:46:35.308Z,87.95
2019-06-07T02:48:50.491Z,88.12
2019-06-07T02:51:14.202Z,87.25
2019-06-07T02:53:40.285Z,87.45
2019-06-07T02:58:32.420Z,87.09
2019-06-07T03:01:06.988Z,86.85
2019-06-07T03:03:22.322Z,87.60
2019-06-07T03:05:47.780Z,87.58
2019-06-07T03:08:14.275Z,87.60
2019-06-07T03:10:42.043Z,87.44
2019-06-07T03:13:09.799Z,87.37
2019-06-07T03:15:45.769Z,86.92
2019-06-07T03:18:11.106Z,86.48
2019-06-07T03:20:36.804Z,87.28
2019-06-07T03:23:01.936Z,87.71
2019-06-07T03:25:30.672Z,87.42
2019-06-07T03:27:53.983Z,87.71
2019-06-07T03:32:47.733Z,86.62
2019-06-07T03:35:10.058Z,86.26
2019-06-07T03:37:37.636Z,86.29
2019-06-07T03:39:59.113Z,86.14
2019-06-07T03:42:23.736Z,85.72
2019-06-07T03:44:47.312Z,84.80
2019-06-07T03:47:10.867Z,85.48
2019-06-07T03:49:37.447Z,85.91
2019-06-07T03:52:01.005Z,86.08
2019-06-07T03:54:27.245Z,85.51
2019-06-07T03:56:52.143Z,84.73
2019-06-07T03:59:16.065Z,84.45
2019-06-07T04:01:41.130Z,84.81
2019-06-07T04:04:05.158Z,84.60
2019-06-07T04:06:31.026Z,84.60
2019-06-07T04:08:54.063Z,84.01
2019-06-07T04:11:17.687Z,84.36
2019-06-07T04:13:42.750Z,84.77
2019-06-07T04:16:07.490Z,83.42
2019-06-07T04:18:33.048Z,82.90
2019-06-07T04:20:59.453Z,82.56
2019-06-07T04:23:29.900Z,83.60
2019-06-07T04:25:51.252Z,83.54
2019-06-07T04:29:13.866Z,82.52
2019-06-07T04:30:50.513Z,81.52
2019-06-07T04:33:15.613Z,81.88
2019-06-07T04:35:42.872Z,82.48
2019-06-07T04:38:06.160Z,81.85
2019-06-07T04:40:30.728Z,81.04
2019-06-07T04:42:55.832Z,81.39
2019-06-07T04:45:33.633Z,81.17
2019-06-07T04:47:46.503Z,80.67
2019-06-07T04:50:10.152Z,80.61
2019-06-07T04:52:39.895Z,79.82
2019-06-07T04:55:00.039Z,80.85
2019-06-07T04:57:24.830Z,81.33
2019-06-07T05:00:22.648Z,81.63
2019-06-07T05:02:16.846Z,81.72
2019-06-07T05:04:43.999Z,80.30
2019-06-07T05:07:09.343Z,80.46
2019-06-07T05:09:37.601Z,82.14
2019-06-07T05:12:01.889Z,81.45
2019-06-07T05:14:28.329Z,80.92
2019-06-07T05:16:54.440Z,80.90
2019-06-07T05:19:18.169Z,80.08
2019-06-07T05:22:01.397Z,80.11
2019-06-07T05:24:10.286Z,80.29
2019-06-07T05:26:35.906Z,80.56
2019-06-07T05:28:59.756Z,79.35
2019-06-07T05:31:23.331Z,79.03
2019-06-07T05:33:46.889Z,80.06
2019-06-07T05:36:10.560Z,79.36
2019-06-07T05:38:41.078Z,80.08
2019-06-07T05:41:05.373Z,80.23
2019-06-07T05:43:35.016Z,80.96
2019-06-07T05:45:57.763Z,81.02
2019-06-07T05:48:26.790Z,80.54
2019-06-07T05:50:56.808Z,80.11
2019-06-07T05:53:17.109Z,80.64
2019-06-07T05:55:44.058Z,80.98
2019-06-07T05:58:08.228Z,80.33
2019-06-07T06:00:35.086Z,80.02
2019-06-07T06:03:05.389Z,78.87
2019-06-07T06:05:34.206Z,79.13
2019-06-07T06:07:51.188Z,76.93
2019-06-07T06:10:16.829Z,76.73
2019-06-07T06:12:49.883Z,76.15
2019-06-07T06:15:11.552Z,75.65
2019-06-07T06:17:40.913Z,75.92
2019-06-07T06:20:03.817Z,75.56
2019-06-07T06:22:32.247Z,75.80
2019-06-07T06:25:31.045Z,76.71
2019-06-07T06:28:03.355Z,77.23
2019-06-07T06:29:55.652Z,78.10
2019-06-07T06:34:53.905Z,76.12
2019-06-07T06:37:21.860Z,76.93
2019-06-07T06:39:49.776Z,76.04
2019-06-07T06:42:12.877Z,75.74
2019-06-07T06:44:40.730Z,75.37
2019-06-07T06:47:03.763Z,76.42
2019-06-07T06:49:28.875Z,76.62
2019-06-07T06:51:53.945Z,76.19
2019-06-07T06:54:39.362Z,75.94
2019-06-07T06:56:45.665Z,75.52
2019-06-07T06:59:37.597Z,74.65
2019-06-07T07:01:35.876Z,73.43
2019-06-07T07:04:12.192Z,73.39
2019-06-07T07:06:27.818Z,72.44
2019-06-07T07:08:53.445Z,72.66
2019-06-07T07:11:17.780Z,71.48
2019-06-07T07:13:44.477Z,72.43
2019-06-07T07:16:07.779Z,72.36
2019-06-07T07:18:32.103Z,70.65
2019-06-07T07:21:01.296Z,71.79
2019-06-07T07:23:27.368Z,71.44
2019-06-07T07:25:59.443Z,71.38
2019-06-07T07:28:19.943Z,70.38
2019-06-07T07:30:47.275Z,71.47
2019-06-07T07:33:11.691Z,71.24
2019-06-07T07:35:35.258Z,70.16
2019-06-07T07:37:59.912Z,68.82
2019-06-07T07:40:56.789Z,69.18
2019-06-07T07:42:56.294Z,68.56
2019-06-07T07:45:18.925Z,68.70
2019-06-07T07:48:03.229Z,69.53
2019-06-07T07:50:08.792Z,70.51
2019-06-07T07:52:32.347Z,70.41
2019-06-07T07:54:58.401Z,67.95
2019-06-07T07:57:30.795Z,66.47
2019-06-07T08:00:13.250Z,65.72
2019-06-07T08:02:23.227Z,63.92
2019-06-07T08:07:15.129Z,63.58
2019-06-07T08:09:39.694Z,63.42
2019-06-07T08:12:03.425Z,62.59
2019-06-07T08:14:27.112Z,59.65
2019-06-07T08:16:51.898Z,60.64
2019-06-07T08:19:15.634Z,59.44
2019-06-07T08:21:39.156Z,57.78
2019-06-07T08:24:05.141Z,59.24
2019-06-07T08:26:29.138Z,60.50
2019-06-07T08:28:58.391Z,60.58
2019-06-07T08:31:21.716Z,60.13
2019-06-07T08:33:47.760Z,61.30
2019-06-07T08:36:21.865Z,61.22
2019-06-07T08:38:48.180Z,61.13
2019-06-07T08:41:11.682Z,58.60
2019-06-07T08:43:33.343Z,60.46
2019-06-07T08:46:07.490Z,60.17
2019-06-07T08:48:30.545Z,58.35
2019-06-07T08:51:02.223Z,58.34
2019-06-07T08:53:25.979Z,57.64
2019-06-07T08:55:54.221Z,58.80
2019-06-07T08:58:18.271Z,58.60
2019-06-07T09:00:46.897Z,60.90
2019-06-07T09:03:11.280Z,60.17
2019-06-07T09:05:35.257Z,58.65
2019-06-07T09:08:25.973Z,57.98
2019-06-07T09:10:25.021Z,58.49
2019-06-07T09:12:49.015Z,59.68
2019-06-07T09:15:23.308Z,60.02
2019-06-07T09:18:29.521Z,58.89
2019-06-07T09:20:32.735Z,59.72
2019-06-07T09:22:35.217Z,60.42
2019-06-07T09:25:04.322Z,59.59
2019-06-07T09:27:25.155Z,58.90
2019-06-07T09:29:49.175Z,56.13
2019-06-07T09:32:18.233Z,53.46
2019-06-07T09:34:39.183Z,56.43
2019-06-07T09:37:54.465Z,56.49
2019-06-07T09:39:29.651Z,57.16
2019-06-07T09:41:53.589Z,56.84
2019-06-07T09:44:25.107Z,58.32
2019-06-07T09:46:43.648Z,57.29
2019-06-07T09:49:18.269Z,54.64
2019-06-07T09:51:33.863Z,56.80
2019-06-07T09:53:58.501Z,53.93
2019-06-07T09:56:23.370Z,54.45
2019-06-07T09:58:52.755Z,52.45
2019-06-07T10:01:15.128Z,52.55
2019-06-07T10:03:39.107Z,53.18
2019-06-07T10:06:08.786Z,54.40
2019-06-07T10:10:56.145Z,53.19
2019-06-07T10:13:21.558Z,49.09
2019-06-07T10:15:48.673Z,49.73
2019-06-07T10:18:13.308Z,47.97
2019-06-07T10:20:37.423Z,48.21
2019-06-07T10:23:01.709Z,48.66
2019-06-07T10:25:25.775Z,48.77
2019-06-07T10:27:50.872Z,48.03
2019-06-07T10:30:14.648Z,50.32
2019-06-07T10:32:40.664Z,50.26
2019-06-07T10:35:07.554Z,50.47
2019-06-07T10:37:31.768Z,49.43
2019-06-07T10:39:55.360Z,51.14
2019-06-07T10:42:18.924Z,48.85
2019-06-07T10:44:43.874Z,49.66
2019-06-07T10:47:08.234Z,47.86
2019-06-07T10:49:32.741Z,48.45
2019-06-07T10:51:57.561Z,48.12
2019-06-07T10:54:29.449Z,49.26
2019-06-07T10:56:46.428Z,49.20
2019-06-07T10:59:11.835Z,49.51
2019-06-07T11:01:35.260Z,48.07
2019-06-07T11:03:58.918Z,49.83
2019-06-07T11:06:23.789Z,50.84
2019-06-07T11:08:48.368Z,50.18
2019-06-07T11:11:12.274Z,48.78
2019-06-07T11:13:35.949Z,48.46
2019-06-07T11:15:59.510Z,44.59
2019-06-07T11:18:23.035Z,44.85
2019-06-07T11:20:47.421Z,43.87
2019-06-07T11:23:12.298Z,45.33
2019-06-07T11:25:36.715Z,44.89
2019-06-07T11:28:00.293Z,44.61
2019-06-07T11:30:23.974Z,46.23
2019-06-07T11:32:47.838Z,46.00
2019-06-07T11:35:14.051Z,45.70
2019-06-07T11:37:38.155Z,44.70
2019-06-07T11:40:01.834Z,45.83
2019-06-07T11:42:25.540Z,45.44
2019-06-07T11:44:56.951Z,43.74
2019-06-07T11:47:24.637Z,42.86
2019-06-07T11:49:49.798Z,40.60
2019-06-07T11:52:13.998Z,42.53
2019-06-07T11:54:37.778Z,41.72
2019-06-07T11:57:01.422Z,41.62
2019-06-07T11:59:25.873Z,42.23
2019-06-07T12:02:01.504Z,42.02
2019-06-07T12:04:34.288Z,44.48
2019-06-07T12:06:51.744Z,44.55
2019-06-07T12:09:16.978Z,43.14
2019-06-07T12:11:40.946Z,43.83
2019-06-07T12:14:05.355Z,42.10
2019-06-07T12:16:28.917Z,41.13
2019-06-07T12:18:52.547Z,38.53
2019-06-07T12:21:18.183Z,39.60
2019-06-07T12:23:42.663Z,43.07
2019-06-07T12:26:08.029Z,43.52
2019-06-07T12:28:32.630Z,44.69
2019-06-07T12:30:56.335Z,45.82
2019-06-07T12:33:20.017Z,44.85
2019-06-07T12:35:45.606Z,44.84
2019-06-07T12:38:09.650Z,43.38
2019-06-07T12:40:33.874Z,41.43
2019-06-07T12:42:57.836Z,40.48
2019-06-07T12:45:42.782Z,40.04
2019-06-07T12:47:47.111Z,40.63
2019-06-07T12:50:11.090Z,40.08
2019-06-07T12:52:34.652Z,40.77
2019-06-07T12:54:58.193Z,40.34
2019-06-07T12:57:22.155Z,39.58
2019-06-07T12:59:47.874Z,36.61
2019-06-07T13:02:11.623Z,38.32
2019-06-07T13:04:35.152Z,36.97
2019-06-07T13:07:01.794Z,36.20
2019-06-07T13:09:25.939Z,35.61
2019-06-07T13:11:49.477Z,35.82
2019-06-07T13:14:13.093Z,34.11
2019-06-07T13:16:36.696Z,37.17
2019-06-07T13:19:00.246Z,37.40
2019-06-07T13:21:24.700Z,38.87
2019-06-07T13:23:48.443Z,40.84
2019-06-07T13:26:12.133Z,41.51
2019-06-07T13:28:36.344Z,43.54
2019-06-07T13:31:02.409Z,42.83
2019-06-07T13:33:33.937Z,42.01
2019-06-07T13:35:52.607Z,40.88
2019-06-07T13:38:26.205Z,39.01
2019-06-07T13:40:49.753Z,36.45
2019-06-07T13:43:13.311Z,36.96
2019-06-07T13:45:37.094Z,37.64
2019-06-07T13:48:01.465Z,35.96
2019-06-07T13:50:26.046Z,34.15
2019-06-07T13:52:49.891Z,36.51
2019-06-07T13:55:14.277Z,35.71
2019-06-07T13:57:37.853Z,34.60
2019-06-07T14:00:09.878Z,34.17
2019-06-07T14:02:29.839Z,34.75
2019-06-07T14:04:54.042Z,35.00
2019-06-07T14:07:21.139Z,34.84
2019-06-07T14:09:46.149Z,34.29
2019-06-07T14:12:12.631Z,35.22
2019-06-07T14:14:37.504Z,36.52
2019-06-07T14:17:01.661Z,34.72
2019-06-07T14:19:26.540Z,32.83
2019-06-07T14:21:50.241Z,31.99
2019-06-07T14:24:14.005Z,30.89
2019-06-07T14:26:37.506Z,30.89
2019-06-07T14:29:01.134Z,32.18
2019-06-07T14:31:26.289Z,32.08
2019-06-07T14:33:50.026Z,30.39
2019-06-07T14:36:14.505Z,30.29
2019-06-07T14:38:39.278Z,29.70
2019-06-07T14:41:02.856Z,30.80
2019-06-07T14:43:27.580Z,29.49
2019-06-07T14:45:51.345Z,29.39
2019-06-07T14:48:16.864Z,29.77
2019-06-07T14:50:41.628Z,30.13
2019-06-07T14:53:06.561Z,33.17
2019-06-07T14:55:32.997Z,35.87
2019-06-07T14:57:59.031Z,35.39
2019-06-07T15:00:26.142Z,36.52
2019-06-07T15:02:49.802Z,38.05
2019-06-07T15:05:14.990Z,39.05
2019-06-07T15:07:40.591Z,37.64
2019-06-07T15:10:05.335Z,38.64
2019-06-07T15:12:29.349Z,39.95
2019-06-07T15:14:53.032Z,39.39
2019-06-07T15:17:18.295Z,40.64
2019-06-07T15:19:42.108Z,38.85
2019-06-07T15:22:07.075Z,38.30
2019-06-07T15:24:35.709Z,39.08
2019-06-07T15:26:59.271Z,37.94
2019-06-07T15:29:24.701Z,38.52
2019-06-07T15:31:48.418Z,38.45
2019-06-07T15:34:12.000Z,38.18
2019-06-07T15:36:36.662Z,38.53
2019-06-07T15:39:00.251Z,39.80
2019-06-07T15:41:23.775Z,40.13
2019-06-07T15:43:47.383Z,40.04
2019-06-07T15:46:11.957Z,39.66
2019-06-07T15:48:38.327Z,39.07
2019-06-07T15:51:03.445Z,38.69
2019-06-07T15:53:32.729Z,40.23
2019-06-07T15:55:54.705Z,38.77
2019-06-07T15:58:19.344Z,38.94
2019-06-07T16:00:43.419Z,39.71
2019-06-07T16:03:08.074Z,40.14
2019-06-07T16:05:38.326Z,40.20
2019-06-07T16:08:06.441Z,40.36
2019-06-07T16:10:32.542Z,40.45
2019-06-07T16:13:00.688Z,40.76
2019-06-07T16:15:25.997Z,41.00
2019-06-07T16:17:52.133Z,41.77
2019-06-07T16:20:16.240Z,40.51
2019-06-07T16:22:41.874Z,39.45
2019-06-07T16:25:06.801Z,39.77
2019-06-07T16:27:30.355Z,41.01
2019-06-07T16:29:53.938Z,40.72
2019-06-07T16:32:17.672Z,41.34
2019-06-07T16:34:41.820Z,40.30
2019-06-07T16:37:05.921Z,40.16
2019-06-07T16:39:29.568Z,39.97
2019-06-07T16:41:53.120Z,40.41
2019-06-07T16:44:16.765Z,40.55
2019-06-07T16:46:40.639Z,40.81
2019-06-07T16:49:05.361Z,41.38
2019-06-07T16:51:31.346Z,41.62
2019-06-07T16:53:57.491Z,39.22
2019-06-07T16:56:23.951Z,35.14
2019-06-07T16:58:49.048Z,34.22
2019-06-07T17:01:16.394Z,34.46
2019-06-07T17:03:43.454Z,34.79
2019-06-07T17:06:17.661Z,35.24
2019-06-07T17:08:42.128Z,34.84
2019-06-07T17:11:05.930Z,36.30
2019-06-07T17:13:33.898Z,35.98
2019-06-07T17:15:56.205Z,37.43
2019-06-07T17:18:21.847Z,37.26
2019-06-07T17:20:45.590Z,37.11
2019-06-07T17:23:09.565Z,37.03
2019-06-07T17:25:33.139Z,37.12
2019-06-07T17:27:58.232Z,38.19
2019-06-07T17:30:22.779Z,38.55
2019-06-07T17:32:55.137Z,38.53
2019-06-07T17:35:12.012Z,39.16
2019-06-07T17:37:36.758Z,39.39
2019-06-07T17:40:00.633Z,40.56
2019-06-07T17:42:27.612Z,41.47
2019-06-07T17:44:51.492Z,41.72
2019-06-07T17:47:15.697Z,41.86
2019-06-07T17:49:39.336Z,42.56
2019-06-07T17:52:13.173Z,43.41
2019-06-07T17:54:36.664Z,43.96
2019-06-07T17:57:00.347Z,44.25
2019-06-07T17:59:23.909Z,43.94
2019-06-07T18:02:07.098Z,43.78
2019-06-07T18:04:14.625Z,45.27
2019-06-07T18:06:41.331Z,44.06
2019-06-07T18:09:07.462Z,44.37
2019-06-07T18:11:32.084Z,44.21
2019-06-07T18:14:10.320Z,44.58
2019-06-07T18:16:24.945Z,46.00
2019-06-07T18:18:48.894Z,45.28
2019-06-07T18:21:12.486Z,45.58
2019-06-07T18:23:36.159Z,45.19
2019-06-07T18:26:00.102Z,45.11
2019-06-07T18:28:24.852Z,45.93
2019-06-07T18:30:48.782Z,45.37
2019-06-07T18:33:12.547Z,44.75
2019-06-07T18:35:36.410Z,45.49
2019-06-07T18:37:59.968Z,47.04
2019-06-07T18:40:25.065Z,46.74
2019-06-07T18:42:49.117Z,47.19
2019-06-07T18:45:12.896Z,47.45
2019-06-07T18:47:36.531Z,47.08
2019-06-07T18:50:00.959Z,47.19
2019-06-07T18:52:28.620Z,47.03
2019-06-07T18:54:53.080Z,49.37
2019-06-07T18:57:16.848Z,48.13
2019-06-07T18:59:40.390Z,47.80
2019-06-07T19:02:04.105Z,49.41
2019-06-07T19:04:28.907Z,48.20
2019-06-07T19:06:52.482Z,49.19
2019-06-07T19:09:16.140Z,49.60
2019-06-07T19:11:41.277Z,50.50
2019-06-07T19:14:04.983Z,49.49
2019-06-07T19:16:28.595Z,49.84
2019-06-07T19:18:52.156Z,49.85
2019-06-07T19:21:15.708Z,50.39
2019-06-07T19:23:40.786Z,51.10
2019-06-07T19:26:04.442Z,50.52
2019-06-07T19:28:29.128Z,51.12
2019-06-07T19:30:53.066Z,51.43
2019-06-07T19:33:16.754Z,54.31
2019-06-07T19:35:40.374Z,54.71
2019-06-07T19:38:04.114Z,54.88
2019-06-07T19:40:29.659Z,53.85
2019-06-07T19:42:54.135Z,55.54
2019-06-07T19:45:29.527Z,56.84
2019-06-07T19:47:54.393Z,57.04
2019-06-07T19:50:18.944Z,56.72
2019-06-07T19:52:45.645Z,57.61
2019-06-07T19:55:10.440Z,58.08
2019-06-07T19:57:34.274Z,59.98
2019-06-07T19:59:57.879Z,60.06
2019-06-07T20:02:21.464Z,61.29
2019-06-07T20:04:45.041Z,59.97
2019-06-07T20:07:08.600Z,62.13
2019-06-07T20:09:32.260Z,60.87
2019-06-07T20:11:56.437Z,62.76
2019-06-07T20:14:20.711Z,60.33
2019-06-07T20:16:44.342Z,62.49
2019-06-07T20:19:09.003Z,63.62
2019-06-07T20:21:34.459Z,64.40
2019-06-07T20:24:00.178Z,65.90
2019-06-07T20:26:23.307Z,66.33
2019-06-07T20:28:46.992Z,66.53
2019-06-07T20:31:10.536Z,67.14
2019-06-07T20:33:35.396Z,67.07
2019-06-07T20:35:58.974Z,66.77
2019-06-07T20:38:24.551Z,66.34
2019-06-07T20:40:48.849Z,63.49
2019-06-07T20:43:12.490Z,59.48
2019-06-07T20:45:36.206Z,59.06
2019-06-07T20:48:00.046Z,57.22
2019-06-07T20:50:23.549Z,58.91
2019-06-07T20:52:47.084Z,64.98
2019-06-07T20:55:12.113Z,67.90
2019-06-07T20:57:35.878Z,66.19
2019-06-07T21:00:00.953Z,69.25
2019-06-07T21:02:25.614Z,69.81
2019-06-07T21:04:49.815Z,73.25
2019-06-07T21:07:14.968Z,70.62
2019-06-07T21:09:38.649Z,73.47
2019-06-07T21:12:03.725Z,72.40
2019-06-07T21:14:27.427Z,71.52
2019-06-07T21:16:50.960Z,74.16
2019-06-07T21:19:14.603Z,71.07
2019-06-07T21:21:39.175Z,71.09
2019-06-07T21:24:02.748Z,72.51
2019-06-07T21:26:26.283Z,70.50
2019-06-07T21:28:50.047Z,70.04
2019-06-07T21:31:13.627Z,70.90
2019-06-07T21:33:37.280Z,68.55
2019-06-07T21:36:01.747Z,68.47
2019-06-07T21:38:25.397Z,71.76
2019-06-07T21:40:50.277Z,71.02
2019-06-07T21:43:16.529Z,71.54
2019-06-07T21:45:40.755Z,74.76
2019-06-07T21:48:07.120Z,71.16
2019-06-07T21:50:33.274Z,74.33
2019-06-07T21:52:56.824Z,72.28
2019-06-07T21:55:20.475Z,72.11
2019-06-07T21:57:44.017Z,72.64
2019-06-07T22:00:13.424Z,72.30
2019-06-07T22:02:37.110Z,68.70
2019-06-07T22:05:00.679Z,67.73
2019-06-07T22:07:24.325Z,69.62
2019-06-07T22:09:48.116Z,70.31
2019-06-07T22:12:12.102Z,69.14
2019-06-07T22:14:35.790Z,70.19
2019-06-07T22:17:00.463Z,68.36
2019-06-07T22:19:24.051Z,69.65
2019-06-07T22:22:01.706Z,69.20
2019-06-07T22:24:15.085Z,67.45
2019-06-07T22:26:38.844Z,69.55
2019-06-07T22:29:02.423Z,68.64
2019-06-07T22:31:26.039Z,67.24
2019-06-07T22:33:49.583Z,67.10
2019-06-07T22:36:13.290Z,67.72
2019-06-07T22:38:36.875Z,70.51
2019-06-07T22:41:02.471Z,71.65
2019-06-07T22:43:27.685Z,68.59
2019-06-07T22:45:51.314Z,69.96
2019-06-07T22:48:15.940Z,72.85
2019-06-07T22:50:42.125Z,74.54
2019-06-07T22:53:05.790Z,73.62
2019-06-07T22:55:30.323Z,73.99
2019-06-07T22:57:59.751Z,73.47
2019-06-07T23:00:24.318Z,74.83
2019-06-07T23:02:47.907Z,76.63
2019-06-07T23:05:12.796Z,76.25
2019-06-07T23:07:37.547Z,74.68
2019-06-07T23:10:01.124Z,75.69
2019-06-07T23:12:24.750Z,76.35
2019-06-07T23:14:50.026Z,79.09
2019-06-07T23:17:13.907Z,80.75
2019-06-07T23:19:37.468Z,79.13
2019-06-07T23:22:01.031Z,79.93
2019-06-07T23:24:24.711Z,80.22
2019-06-07T23:26:48.293Z,79.26
2019-06-07T23:29:12.491Z,75.38
2019-06-07T23:31:36.102Z,77.84
2019-06-07T23:33:59.642Z,79.54
2019-06-07T23:36:23.337Z,79.83
2019-06-07T23:38:51.950Z,80.47
2019-06-07T23:41:15.761Z,81.29
2019-06-07T23:43:39.341Z,82.27
2019-06-07T23:46:03.275Z,80.34
2019-06-07T23:48:27.779Z,84.84
2019-06-07T23:50:53.476Z,85.06
2019-06-07T23:53:19.904Z,84.62
2019-06-07T23:55:46.563Z,82.54
2019-06-07T23:58:13.861Z,82.93
